sensor_id;sensor_type;location;lat;lon;timestamp;pressure;altitude;pressure_sealevel;temperature;humidity
3697;BME280;60662;48.810;8.872;2023-04-24T06:12:37;95719.81;;;8.34;84.84
3697;BME280;60662;48.810;8.872;2023-04-24T06:16:21;95715.31;;;8.38;85.08
3697;BME280;60662;48.810;8.872;2023-04-24T06:18:38;95714.09;;;8.45;84.00
3697;BME280;60662;48.810;8.872;2023-04-24T06:19:40;95719.44;;;8.59;83.08
3697;BME280;60662;48.810;8.872;2023-04-24T06:20:42;95720.41;;;8.74;82.98
3697;BME280;60662;48.810;8.872;2023-04-24T06:21:43;95713.38;;;8.76;82.98
3697;BME280;60662;48.810;8.872;2023-04-24T06:22:45;95727.59;;;8.87;82.77
3697;BME280;60662;48.810;8.872;2023-04-24T06:23:46;95730.03;;;8.90;80.75
3697;BME280;60662;48.810;8.872;2023-04-24T06:24:48;95724.50;;;8.96;80.13
3697;BME280;60662;48.810;8.872;2023-04-24T06:25:49;95723.06;;;8.90;79.91
3697;BME280;60662;48.810;8.872;2023-04-24T06:26:51;95722.06;;;8.93;80.13
3697;BME280;60662;48.810;8.872;2023-04-24T06:27:53;95725.19;;;8.99;81.17
3697;BME280;60662;48.810;8.872;2023-04-24T06:30:10;95720.94;;;9.14;81.55
3697;BME280;60662;48.810;8.872;2023-04-24T06:31:12;95731.09;;;9.19;80.56
3697;BME280;60662;48.810;8.872;2023-04-24T06:32:13;95727.59;;;9.36;80.04
3697;BME280;60662;48.810;8.872;2023-04-24T06:33:16;95715.66;;;9.32;79.64
3697;BME280;60662;48.810;8.872;2023-04-24T06:34:23;95729.84;;;9.42;77.95
3697;BME280;60662;48.810;8.872;2023-04-24T06:35:24;95726.91;;;9.64;77.84
3697;BME280;60662;48.810;8.872;2023-04-24T06:36:26;95722.94;;;9.73;78.76
3697;BME280;60662;48.810;8.872;2023-04-24T06:37:27;95727.38;;;9.71;78.99
3697;BME280;60662;48.810;8.872;2023-04-24T06:38:29;95718.69;;;9.56;76.89
3697;BME280;60662;48.810;8.872;2023-04-24T06:39:30;95731.63;;;9.74;76.67
3697;BME280;60662;48.810;8.872;2023-04-24T06:40:32;95728.19;;;9.57;75.84
3697;BME280;60662;48.810;8.872;2023-04-24T06:41:34;95722.16;;;9.71;75.98
3697;BME280;60662;48.810;8.872;2023-04-24T06:42:36;95719.31;;;9.76;75.65
3697;BME280;60662;48.810;8.872;2023-04-24T06:43:37;95715.09;;;9.89;73.99
3697;BME280;60662;48.810;8.872;2023-04-24T06:44:39;95715.03;;;9.75;74.02
3697;BME280;60662;48.810;8.872;2023-04-24T06:46:58;95720.75;;;9.50;74.49
3697;BME280;60662;48.810;8.872;2023-04-24T06:50:50;95721.03;;;9.13;75.97
3697;BME280;60662;48.810;8.872;2023-04-24T07:05:59;95743.31;;;9.01;78.96
3697;BME280;60662;48.810;8.872;2023-04-24T07:07:00;95737.03;;;9.05;77.00
3697;BME280;60662;48.810;8.872;2023-04-24T07:08:02;95745.84;;;9.03;76.53
3697;BME280;60662;48.810;8.872;2023-04-24T07:09:04;95734.13;;;9.27;76.46
3697;BME280;60662;48.810;8.872;2023-04-24T07:10:06;95736.66;;;9.45;74.68
3697;BME280;60662;48.810;8.872;2023-04-24T07:11:08;95728.41;;;9.69;74.68
3697;BME280;60662;48.810;8.872;2023-04-24T07:12:09;95736.84;;;9.74;74.57
3697;BME280;60662;48.810;8.872;2023-04-24T07:13:14;95734.28;;;9.72;75.43
3697;BME280;60662;48.810;8.872;2023-04-24T07:14:16;95734.03;;;9.61;73.98
3697;BME280;60662;48.810;8.872;2023-04-24T07:15:17;95732.19;;;9.47;75.17
3697;BME280;60662;48.810;8.872;2023-04-24T07:16:18;95729.09;;;9.40;75.54
3697;BME280;60662;48.810;8.872;2023-04-24T07:17:20;95737.91;;;9.38;74.84
3697;BME280;60662;48.810;8.872;2023-04-24T07:18:22;95740.75;;;9.33;75.10
3697;BME280;60662;48.810;8.872;2023-04-24T07:19:23;95735.81;;;9.44;73.81
3697;BME280;60662;48.810;8.872;2023-04-24T07:20:25;95734.22;;;9.42;73.71
3697;BME280;60662;48.810;8.872;2023-04-24T07:21:27;95741.94;;;9.75;73.97
3697;BME280;60662;48.810;8.872;2023-04-24T07:22:29;95737.72;;;9.89;73.66
3697;BME280;60662;48.810;8.872;2023-04-24T07:23:30;95729.16;;;9.87;72.27
3697;BME280;60662;48.810;8.872;2023-04-24T07:24:32;95741.63;;;9.82;71.67
3697;BME280;60662;48.810;8.872;2023-04-24T07:25:34;95746.88;;;9.80;72.27
3697;BME280;60662;48.810;8.872;2023-04-24T07:26:35;95741.69;;;9.80;72.17
3697;BME280;60662;48.810;8.872;2023-04-24T07:27:38;95752.88;;;9.82;72.10
3697;BME280;60662;48.810;8.872;2023-04-24T07:28:39;95752.28;;;9.77;70.46
3697;BME280;60662;48.810;8.872;2023-04-24T07:29:41;95755.00;;;9.43;70.18
3697;BME280;60662;48.810;8.872;2023-04-24T07:30:43;95746.66;;;9.37;70.19
3697;BME280;60662;48.810;8.872;2023-04-24T07:31:45;95752.78;;;9.36;69.87
3697;BME280;60662;48.810;8.872;2023-04-24T07:32:46;95762.00;;;9.25;70.14
3697;BME280;60662;48.810;8.872;2023-04-24T07:33:48;95753.19;;;9.12;70.69
3697;BME280;60662;48.810;8.872;2023-04-24T07:34:49;95760.50;;;9.21;70.81
3697;BME280;60662;48.810;8.872;2023-04-24T07:35:51;95768.09;;;9.26;71.48
3697;BME280;60662;48.810;8.872;2023-04-24T07:36:52;95764.69;;;9.08;70.90
3697;BME280;60662;48.810;8.872;2023-04-24T07:37:54;95770.22;;;9.02;71.01
3697;BME280;60662;48.810;8.872;2023-04-24T07:38:55;95770.66;;;9.10;71.16
3697;BME280;60662;48.810;8.872;2023-04-24T07:39:57;95764.78;;;9.22;70.18
3697;BME280;60662;48.810;8.872;2023-04-24T07:40:59;95768.94;;;9.42;70.54
3697;BME280;60662;48.810;8.872;2023-04-24T07:42:00;95776.16;;;9.53;69.21
3697;BME280;60662;48.810;8.872;2023-04-24T07:43:03;95775.50;;;9.66;68.98
3697;BME280;60662;48.810;8.872;2023-04-24T07:44:04;95774.66;;;9.81;67.92
3697;BME280;60662;48.810;8.872;2023-04-24T07:45:06;95769.88;;;9.73;67.98
3697;BME280;60662;48.810;8.872;2023-04-24T07:46:08;95772.38;;;9.75;67.88
3697;BME280;60662;48.810;8.872;2023-04-24T07:47:10;95783.75;;;9.74;68.04
3697;BME280;60662;48.810;8.872;2023-04-24T07:48:12;95778.75;;;9.85;68.39
3697;BME280;60662;48.810;8.872;2023-04-24T07:49:16;95776.78;;;9.90;69.16
3697;BME280;60662;48.810;8.872;2023-04-24T07:50:20;95773.72;;;9.98;68.64
3697;BME280;60662;48.810;8.872;2023-04-24T07:51:22;95776.09;;;10.33;67.15
3697;BME280;60662;48.810;8.872;2023-04-24T07:52:23;95782.81;;;10.68;66.88
3697;BME280;60662;48.810;8.872;2023-04-24T07:53:25;95772.06;;;10.88;65.87
3697;BME280;60662;48.810;8.872;2023-04-24T07:54:26;95784.63;;;10.82;64.99
3697;BME280;60662;48.810;8.872;2023-04-24T07:55:28;95787.22;;;10.67;65.07
3697;BME280;60662;48.810;8.872;2023-04-24T07:56:29;95783.34;;;10.44;65.70
3697;BME280;60662;48.810;8.872;2023-04-24T07:57:32;95794.69;;;10.73;66.86
3697;BME280;60662;48.810;8.872;2023-04-24T07:58:34;95780.59;;;10.61;65.47
3697;BME280;60662;48.810;8.872;2023-04-24T07:59:36;95797.78;;;10.50;66.48
3697;BME280;60662;48.810;8.872;2023-04-24T08:00:37;95794.84;;;10.56;67.03
3697;BME280;60662;48.810;8.872;2023-04-24T08:01:39;95806.41;;;10.36;68.04
3697;BME280;60662;48.810;8.872;2023-04-24T08:02:40;95797.50;;;10.08;67.70
3697;BME280;60662;48.810;8.872;2023-04-24T08:03:42;95809.13;;;10.02;68.35
3697;BME280;60662;48.810;8.872;2023-04-24T08:04:43;95804.00;;;9.85;68.30
3697;BME280;60662;48.810;8.872;2023-04-24T08:05:45;95816.09;;;10.02;68.19
3697;BME280;60662;48.810;8.872;2023-04-24T08:06:47;95796.94;;;10.03;67.05
3697;BME280;60662;48.810;8.872;2023-04-24T08:07:49;95806.72;;;10.29;66.85
3697;BME280;60662;48.810;8.872;2023-04-24T08:08:51;95811.91;;;10.15;67.29
3697;BME280;60662;48.810;8.872;2023-04-24T08:09:52;95814.16;;;10.05;68.19
3697;BME280;60662;48.810;8.872;2023-04-24T08:10:54;95813.59;;;10.00;69.80
3697;BME280;60662;48.810;8.872;2023-04-24T08:11:56;95816.63;;;9.92;68.74
3697;BME280;60662;48.810;8.872;2023-04-24T08:12:57;95815.03;;;9.74;67.71
3697;BME280;60662;48.810;8.872;2023-04-24T08:13:59;95817.97;;;9.68;68.43
3697;BME280;60662;48.810;8.872;2023-04-24T08:15:00;95806.84;;;9.48;68.64
3697;BME280;60662;48.810;8.872;2023-04-24T08:16:02;95812.84;;;9.50;68.03
3697;BME280;60662;48.810;8.872;2023-04-24T08:17:03;95821.38;;;9.36;68.37
3697;BME280;60662;48.810;8.872;2023-04-24T08:18:05;95824.22;;;9.31;68.86
3697;BME280;60662;48.810;8.872;2023-04-24T08:19:07;95820.19;;;9.26;69.72
3697;BME280;60662;48.810;8.872;2023-04-24T08:20:10;95812.91;;;9.15;69.95
3697;BME280;60662;48.810;8.872;2023-04-24T08:21:14;95827.50;;;9.35;70.59
3697;BME280;60662;48.810;8.872;2023-04-24T08:22:18;95827.94;;;9.10;69.69
3697;BME280;60662;48.810;8.872;2023-04-24T08:23:20;95820.16;;;8.92;70.90
3697;BME280;60662;48.810;8.872;2023-04-24T08:31:42;95843.75;;;8.54;70.77
3697;BME280;60662;48.810;8.872;2023-04-24T08:32:44;95845.44;;;8.55;70.40
3697;BME280;60662;48.810;8.872;2023-04-24T08:33:46;95847.13;;;8.56;69.30
3697;BME280;60662;48.810;8.872;2023-04-24T08:34:48;95849.28;;;8.65;69.69
3697;BME280;60662;48.810;8.872;2023-04-24T08:35:50;95842.72;;;8.58;68.34
3697;BME280;60662;48.810;8.872;2023-04-24T08:36:52;95841.94;;;8.74;68.84
3697;BME280;60662;48.810;8.872;2023-04-24T08:37:53;95860.59;;;8.82;68.54
3697;BME280;60662;48.810;8.872;2023-04-24T08:38:55;95849.44;;;8.80;68.20
3697;BME280;60662;48.810;8.872;2023-04-24T08:39:56;95859.91;;;8.96;69.07
3697;BME280;60662;48.810;8.872;2023-04-24T08:40:59;95851.00;;;9.00;68.70
3697;BME280;60662;48.810;8.872;2023-04-24T08:42:01;95842.59;;;8.95;68.50
3697;BME280;60662;48.810;8.872;2023-04-24T08:43:09;95864.50;;;9.08;68.23
3697;BME280;60662;48.810;8.872;2023-04-24T08:44:12;95866.31;;;9.06;68.71
3697;BME280;60662;48.810;8.872;2023-04-24T08:45:16;95869.09;;;9.03;68.46
3697;BME280;60662;48.810;8.872;2023-04-24T08:46:18;95870.00;;;9.02;67.90
3697;BME280;60662;48.810;8.872;2023-04-24T08:47:21;95865.19;;;9.12;69.42
3697;BME280;60662;48.810;8.872;2023-04-24T08:48:23;95868.22;;;9.20;69.67
3697;BME280;60662;48.810;8.872;2023-04-24T08:49:32;95873.00;;;8.94;70.45
3697;BME280;60662;48.810;8.872;2023-04-24T08:50:34;95867.88;;;8.75;70.82
3697;BME280;60662;48.810;8.872;2023-04-24T09:00:50;95880.69;;;8.07;71.89
3697;BME280;60662;48.810;8.872;2023-04-24T09:01:52;95886.56;;;8.10;71.02
3697;BME280;60662;48.810;8.872;2023-04-24T09:02:56;95888.03;;;8.16;70.83
3697;BME280;60662;48.810;8.872;2023-04-24T09:04:01;95888.28;;;8.29;71.52
3697;BME280;60662;48.810;8.872;2023-04-24T09:05:03;95874.81;;;8.21;71.52
3697;BME280;60662;48.810;8.872;2023-04-24T09:06:06;95883.81;;;8.13;71.56
3697;BME280;60662;48.810;8.872;2023-04-24T09:07:10;95873.41;;;8.13;71.43
3697;BME280;60662;48.810;8.872;2023-04-24T09:08:13;95879.47;;;8.14;70.87
3697;BME280;60662;48.810;8.872;2023-04-24T09:09:16;95883.94;;;8.29;71.04
3697;BME280;60662;48.810;8.872;2023-04-24T09:10:20;95886.09;;;8.58;71.23
3697;BME280;60662;48.810;8.872;2023-04-24T09:11:22;95882.50;;;8.78;70.42
3697;BME280;60662;48.810;8.872;2023-04-24T09:12:25;95888.94;;;8.88;70.58
3697;BME280;60662;48.810;8.872;2023-04-24T09:13:27;95861.75;;;8.76;70.73
3697;BME280;60662;48.810;8.872;2023-04-24T09:14:30;95890.25;;;8.97;70.90
3697;BME280;60662;48.810;8.872;2023-04-24T09:15:33;95888.38;;;9.17;70.38
3697;BME280;60662;48.810;8.872;2023-04-24T09:16:35;95893.44;;;9.20;69.79
3697;BME280;60662;48.810;8.872;2023-04-24T09:17:37;95886.00;;;9.29;69.84
3697;BME280;60662;48.810;8.872;2023-04-24T09:18:39;95882.34;;;9.16;69.75
3697;BME280;60662;48.810;8.872;2023-04-24T09:19:40;95879.59;;;9.02;70.35
3697;BME280;60662;48.810;8.872;2023-04-24T09:21:03;95877.59;;;8.89;69.93
3697;BME280;60662;48.810;8.872;2023-04-24T09:22:06;95870.38;;;8.59;70.91
3697;BME280;60662;48.810;8.872;2023-04-24T09:23:07;95873.00;;;8.59;70.76
3697;BME280;60662;48.810;8.872;2023-04-24T09:24:20;95879.41;;;8.70;70.17
3697;BME280;60662;48.810;8.872;2023-04-24T09:25:34;95879.28;;;8.73;70.78
3697;BME280;60662;48.810;8.872;2023-04-24T09:26:37;95876.47;;;8.77;71.02
3697;BME280;60662;48.810;8.872;2023-04-24T09:27:45;95898.09;;;8.60;70.33
3697;BME280;60662;48.810;8.872;2023-04-24T09:28:46;95886.47;;;8.50;71.39
3697;BME280;60662;48.810;8.872;2023-04-24T09:29:55;95901.53;;;8.24;72.27
3697;BME280;60662;48.810;8.872;2023-04-24T09:31:03;95896.81;;;8.13;73.18
3697;BME280;60662;48.810;8.872;2023-04-24T09:32:21;95895.75;;;8.17;73.46
3697;BME280;60662;48.810;8.872;2023-04-24T09:33:23;95908.53;;;8.41;73.67
3697;BME280;60662;48.810;8.872;2023-04-24T09:34:26;95899.56;;;8.29;73.75
3697;BME280;60662;48.810;8.872;2023-04-24T09:35:28;95901.91;;;8.34;73.13
3697;BME280;60662;48.810;8.872;2023-04-24T09:36:37;95906.38;;;8.51;72.34
3697;BME280;60662;48.810;8.872;2023-04-24T09:37:41;95910.66;;;8.33;71.81
3697;BME280;60662;48.810;8.872;2023-04-24T09:38:43;95906.75;;;8.24;71.16
3697;BME280;60662;48.810;8.872;2023-04-24T09:39:44;95919.38;;;8.32;70.50
3697;BME280;60662;48.810;8.872;2023-04-24T09:40:46;95908.44;;;8.25;70.94
3697;BME280;60662;48.810;8.872;2023-04-24T09:41:52;95896.66;;;8.36;70.76
3697;BME280;60662;48.810;8.872;2023-04-24T09:42:55;95898.28;;;9.10;70.69
3697;BME280;60662;48.810;8.872;2023-04-24T09:44:34;95900.03;;;8.92;69.00
3697;BME280;60662;48.810;8.872;2023-04-24T09:45:37;95911.50;;;9.23;68.63
3697;BME280;60662;48.810;8.872;2023-04-24T09:46:38;95903.47;;;9.27;68.14
3697;BME280;60662;48.810;8.872;2023-04-24T09:47:41;95899.38;;;9.39;67.05
3697;BME280;60662;48.810;8.872;2023-04-24T09:48:42;95895.00;;;9.57;66.98
3697;BME280;60662;48.810;8.872;2023-04-24T09:49:43;95908.44;;;9.66;66.97
3697;BME280;60662;48.810;8.872;2023-04-24T09:50:46;95889.44;;;9.63;65.26
3697;BME280;60662;48.810;8.872;2023-04-24T09:51:48;95908.03;;;9.73;65.01
3697;BME280;60662;48.810;8.872;2023-04-24T09:53:02;95904.66;;;9.55;65.20
3697;BME280;60662;48.810;8.872;2023-04-24T09:54:13;95903.84;;;9.71;65.29
3697;BME280;60662;48.810;8.872;2023-04-24T09:55:19;95903.31;;;9.64;64.36
3697;BME280;60662;48.810;8.872;2023-04-24T09:56:21;95887.00;;;9.60;64.57
3697;BME280;60662;48.810;8.872;2023-04-24T09:57:23;95916.56;;;9.43;65.50
3697;BME280;60662;48.810;8.872;2023-04-24T09:58:25;95894.25;;;9.38;64.99
3697;BME280;60662;48.810;8.872;2023-04-24T09:59:45;95907.69;;;9.63;63.27
3697;BME280;60662;48.810;8.872;2023-04-24T10:00:47;95915.59;;;9.62;64.33
3697;BME280;60662;48.810;8.872;2023-04-24T10:01:48;95883.69;;;10.06;64.33
3697;BME280;60662;48.810;8.872;2023-04-24T10:02:54;95898.00;;;10.31;62.47
3697;BME280;60662;48.810;8.872;2023-04-24T10:03:56;95908.63;;;10.44;61.75
3697;BME280;60662;48.810;8.872;2023-04-24T10:04:58;95912.97;;;10.59;61.26
3697;BME280;60662;48.810;8.872;2023-04-24T10:06:03;95918.88;;;10.47;62.42
3697;BME280;60662;48.810;8.872;2023-04-24T10:07:09;95918.00;;;10.62;62.38
3697;BME280;60662;48.810;8.872;2023-04-24T10:08:11;95916.09;;;10.34;61.15
3697;BME280;60662;48.810;8.872;2023-04-24T10:09:13;95918.63;;;10.20;62.23
3697;BME280;60662;48.810;8.872;2023-04-24T10:10:15;95925.19;;;10.11;62.58
3697;BME280;60662;48.810;8.872;2023-04-24T10:11:17;95918.78;;;10.01;61.68
3697;BME280;60662;48.810;8.872;2023-04-24T10:12:19;95921.94;;;9.74;62.48
3697;BME280;60662;48.810;8.872;2023-04-24T10:13:21;95922.53;;;9.79;63.12
3697;BME280;60662;48.810;8.872;2023-04-24T10:14:24;95908.81;;;9.91;63.23
3697;BME280;60662;48.810;8.872;2023-04-24T10:15:26;95933.66;;;9.99;63.12
3697;BME280;60662;48.810;8.872;2023-04-24T10:16:28;95932.28;;;9.91;63.31
3697;BME280;60662;48.810;8.872;2023-04-24T10:17:32;95924.59;;;9.72;63.73
3697;BME280;60662;48.810;8.872;2023-04-24T10:18:34;95929.34;;;9.82;63.36
3697;BME280;60662;48.810;8.872;2023-04-24T10:19:36;95941.84;;;9.75;63.43
3697;BME280;60662;48.810;8.872;2023-04-24T10:20:39;95942.81;;;9.90;63.26
3697;BME280;60662;48.810;8.872;2023-04-24T10:21:43;95932.75;;;10.00;62.22
3697;BME280;60662;48.810;8.872;2023-04-24T10:22:49;95932.88;;;9.96;62.36
3697;BME280;60662;48.810;8.872;2023-04-24T10:24:09;95940.72;;;9.96;62.84
3697;BME280;60662;48.810;8.872;2023-04-24T10:25:11;95937.28;;;9.96;63.36
3697;BME280;60662;48.810;8.872;2023-04-24T10:26:13;95950.41;;;10.10;63.07
3697;BME280;60662;48.810;8.872;2023-04-24T10:27:20;95955.22;;;10.18;62.25
3697;BME280;60662;48.810;8.872;2023-04-24T10:28:24;95959.25;;;10.08;60.96
3697;BME280;60662;48.810;8.872;2023-04-24T10:29:25;95945.94;;;9.96;61.38
3697;BME280;60662;48.810;8.872;2023-04-24T10:30:30;95945.28;;;9.93;62.04
3697;BME280;60662;48.810;8.872;2023-04-24T10:31:31;95943.81;;;9.87;61.53
3697;BME280;60662;48.810;8.872;2023-04-24T10:32:34;95944.06;;;9.83;61.82
3697;BME280;60662;48.810;8.872;2023-04-24T10:33:36;95959.88;;;9.79;62.32
3697;BME280;60662;48.810;8.872;2023-04-24T10:34:39;95952.72;;;9.83;62.93
3697;BME280;60662;48.810;8.872;2023-04-24T10:35:44;95962.09;;;9.70;63.13
3697;BME280;60662;48.810;8.872;2023-04-24T10:36:50;95951.56;;;9.55;63.27
3697;BME280;60662;48.810;8.872;2023-04-24T10:38:08;95959.16;;;9.60;64.78
3697;BME280;60662;48.810;8.872;2023-04-24T10:39:12;95960.47;;;9.34;64.10
3697;BME280;60662;48.810;8.872;2023-04-24T10:40:25;95964.25;;;9.10;63.94
3697;BME280;60662;48.810;8.872;2023-04-24T10:41:30;95963.31;;;9.11;64.61
3697;BME280;60662;48.810;8.872;2023-04-24T10:42:31;95957.72;;;9.02;64.68
3697;BME280;60662;48.810;8.872;2023-04-24T10:43:33;95963.59;;;9.05;65.00
3697;BME280;60662;48.810;8.872;2023-04-24T10:53:12;95966.56;;;8.62;67.24
3697;BME280;60662;48.810;8.872;2023-04-24T10:55:49;95968.09;;;8.66;66.73
3697;BME280;60662;48.810;8.872;2023-04-24T10:56:51;95966.50;;;8.81;66.40
3697;BME280;60662;48.810;8.872;2023-04-24T10:58:03;95970.81;;;9.00;66.21
3697;BME280;60662;48.810;8.872;2023-04-24T10:59:07;95971.13;;;9.29;66.22
3697;BME280;60662;48.810;8.872;2023-04-24T11:00:20;95974.50;;;9.48;65.98
3697;BME280;60662;48.810;8.872;2023-04-24T11:01:29;95971.69;;;9.69;65.33
3697;BME280;60662;48.810;8.872;2023-04-24T11:02:38;95973.31;;;9.72;64.09
3697;BME280;60662;48.810;8.872;2023-04-24T11:03:50;95969.13;;;9.85;63.90
3697;BME280;60662;48.810;8.872;2023-04-24T11:04:52;95966.13;;;9.93;63.31
3697;BME280;60662;48.810;8.872;2023-04-24T11:06:01;95973.31;;;10.21;62.60
3697;BME280;60662;48.810;8.872;2023-04-24T11:07:03;95972.78;;;9.99;61.60
3697;BME280;60662;48.810;8.872;2023-04-24T11:08:13;95975.88;;;9.89;61.93
3697;BME280;60662;48.810;8.872;2023-04-24T11:09:15;95980.00;;;9.93;62.32
3697;BME280;60662;48.810;8.872;2023-04-24T11:10:26;95969.16;;;10.01;62.76
3697;BME280;60662;48.810;8.872;2023-04-24T11:11:29;95955.28;;;10.01;63.06
3697;BME280;60662;48.810;8.872;2023-04-24T11:12:34;95971.03;;;10.15;63.04
3697;BME280;60662;48.810;8.872;2023-04-24T11:16:33;95973.44;;;9.69;63.38
3697;BME280;60662;48.810;8.872;2023-04-24T11:23:36;95976.72;;;9.56;66.07
3697;BME280;60662;48.810;8.872;2023-04-24T11:24:40;95983.75;;;9.54;65.76
3697;BME280;60662;48.810;8.872;2023-04-24T11:25:41;95964.09;;;9.31;66.52
3697;BME280;60662;48.810;8.872;2023-04-24T11:26:44;95984.06;;;9.30;65.40
3697;BME280;60662;48.810;8.872;2023-04-24T11:27:46;95973.66;;;9.30;65.14
3697;BME280;60662;48.810;8.872;2023-04-24T11:28:50;95975.81;;;9.22;64.78
3697;BME280;60662;48.810;8.872;2023-04-24T11:30:56;95971.69;;;9.69;63.30
3697;BME280;60662;48.810;8.872;2023-04-24T11:32:16;95979.50;;;10.03;63.05
3697;BME280;60662;48.810;8.872;2023-04-24T11:33:20;95977.19;;;10.14;61.66
3697;BME280;60662;48.810;8.872;2023-04-24T11:34:22;95976.03;;;10.20;62.33
3697;BME280;60662;48.810;8.872;2023-04-24T11:35:24;95983.34;;;10.29;61.30
3697;BME280;60662;48.810;8.872;2023-04-24T11:36:26;95978.00;;;9.99;61.04
3697;BME280;60662;48.810;8.872;2023-04-24T11:37:33;95975.22;;;10.02;61.55
3697;BME280;60662;48.810;8.872;2023-04-24T11:38:35;95970.25;;;10.47;61.75
3697;BME280;60662;48.810;8.872;2023-04-24T11:39:37;95961.47;;;10.64;61.65
3697;BME280;60662;48.810;8.872;2023-04-24T11:40:38;95975.00;;;10.86;60.61
3697;BME280;60662;48.810;8.872;2023-04-24T11:41:40;95981.28;;;10.52;60.87
3697;BME280;60662;48.810;8.872;2023-04-24T11:42:47;95968.13;;;10.69;60.65
3697;BME280;60662;48.810;8.872;2023-04-24T11:43:49;95964.41;;;10.89;60.61
3697;BME280;60662;48.810;8.872;2023-04-24T11:44:52;95968.66;;;10.44;61.30
3697;BME280;60662;48.810;8.872;2023-04-24T11:45:59;95966.88;;;10.44;62.71
3697;BME280;60662;48.810;8.872;2023-04-24T11:47:01;95974.59;;;10.30;62.66
3697;BME280;60662;48.810;8.872;2023-04-24T11:48:03;95973.22;;;10.07;62.47
3697;BME280;60662;48.810;8.872;2023-04-24T11:49:05;95972.28;;;9.92;62.66
3697;BME280;60662;48.810;8.872;2023-04-24T11:50:08;95983.94;;;9.85;62.40
3697;BME280;60662;48.810;8.872;2023-04-24T11:51:12;95982.97;;;9.70;62.47
3697;BME280;60662;48.810;8.872;2023-04-24T11:52:15;95986.53;;;9.51;62.92
3697;BME280;60662;48.810;8.872;2023-04-24T11:53:20;95977.03;;;9.50;63.30
3697;BME280;60662;48.810;8.872;2023-04-24T11:54:23;95971.94;;;9.64;63.10
3697;BME280;60662;48.810;8.872;2023-04-24T11:55:26;95982.06;;;9.53;62.76
3697;BME280;60662;48.810;8.872;2023-04-24T11:56:28;95990.19;;;9.47;63.41
3697;BME280;60662;48.810;8.872;2023-04-24T11:57:30;95984.53;;;9.56;62.85
3697;BME280;60662;48.810;8.872;2023-04-24T11:58:37;95985.28;;;9.58;62.85
3697;BME280;60662;48.810;8.872;2023-04-24T11:59:39;95995.97;;;9.54;63.05
3697;BME280;60662;48.810;8.872;2023-04-24T12:00:40;95995.41;;;9.64;63.07
3697;BME280;60662;48.810;8.872;2023-04-24T12:01:43;96002.09;;;9.86;62.80
3697;BME280;60662;48.810;8.872;2023-04-24T12:02:45;95996.56;;;9.92;63.14
3697;BME280;60662;48.810;8.872;2023-04-24T12:03:48;95998.78;;;10.00;62.35
3697;BME280;60662;48.810;8.872;2023-04-24T12:04:51;95993.59;;;10.32;61.43
3697;BME280;60662;48.810;8.872;2023-04-24T12:06:04;95989.91;;;10.20;61.11
3697;BME280;60662;48.810;8.872;2023-04-24T12:07:07;96020.19;;;10.23;60.24
3697;BME280;60662;48.810;8.872;2023-04-24T12:08:09;95993.41;;;10.03;60.84
3697;BME280;60662;48.810;8.872;2023-04-24T12:09:11;95989.66;;;9.91;61.86
3697;BME280;60662;48.810;8.872;2023-04-24T12:10:23;96000.09;;;9.91;61.93
3697;BME280;60662;48.810;8.872;2023-04-24T12:11:24;96008.66;;;10.11;61.36
3697;BME280;60662;48.810;8.872;2023-04-24T12:12:27;95990.25;;;9.96;61.33
3697;BME280;60662;48.810;8.872;2023-04-24T12:13:29;95999.22;;;10.08;61.64
3697;BME280;60662;48.810;8.872;2023-04-24T12:14:31;96000.13;;;10.41;61.19
3697;BME280;60662;48.810;8.872;2023-04-24T12:15:32;96008.63;;;10.44;61.29
3697;BME280;60662;48.810;8.872;2023-04-24T12:16:34;95992.25;;;10.42;60.95
3697;BME280;60662;48.810;8.872;2023-04-24T12:17:36;95999.34;;;10.87;61.35
3697;BME280;60662;48.810;8.872;2023-04-24T12:18:44;95996.91;;;11.75;59.72
3697;BME280;60662;48.810;8.872;2023-04-24T12:19:47;95997.38;;;11.67;59.47
3697;BME280;60662;48.810;8.872;2023-04-24T12:20:49;96003.56;;;11.36;59.91
3697;BME280;60662;48.810;8.872;2023-04-24T12:22:05;95990.38;;;11.07;59.91
3697;BME280;60662;48.810;8.872;2023-04-24T12:23:07;96010.03;;;11.14;60.66
3697;BME280;60662;48.810;8.872;2023-04-24T12:24:08;96002.56;;;10.92;61.27
3697;BME280;60662;48.810;8.872;2023-04-24T12:25:11;96013.28;;;10.55;60.78
3697;BME280;60662;48.810;8.872;2023-04-24T12:36:42;96029.81;;;8.44;76.70
3697;BME280;60662;48.810;8.872;2023-04-24T12:37:44;96031.97;;;9.10;76.19
3697;BME280;60662;48.810;8.872;2023-04-24T12:38:52;96009.97;;;9.16;75.89
3697;BME280;60662;48.810;8.872;2023-04-24T12:40:05;96026.81;;;9.09;73.95
3697;BME280;60662;48.810;8.872;2023-04-24T12:41:10;96033.13;;;9.40;74.27
3697;BME280;60662;48.810;8.872;2023-04-24T12:42:12;96032.13;;;9.25;72.53
3697;BME280;60662;48.810;8.872;2023-04-24T12:43:14;96025.22;;;9.24;71.95
3697;BME280;60662;48.810;8.872;2023-04-24T12:44:16;96019.19;;;9.23;71.77
3697;BME280;60662;48.810;8.872;2023-04-24T12:45:19;96022.84;;;9.37;71.22
3697;BME280;60662;48.810;8.872;2023-04-24T12:46:21;96025.25;;;9.92;70.36
3697;BME280;60662;48.810;8.872;2023-04-24T12:47:24;96026.28;;;10.23;68.45
3697;BME280;60662;48.810;8.872;2023-04-24T12:48:26;96017.59;;;10.23;66.93
3697;BME280;60662;48.810;8.872;2023-04-24T12:49:30;96015.38;;;10.15;67.80
3697;BME280;60662;48.810;8.872;2023-04-24T12:50:31;95997.19;;;10.47;67.27
3697;BME280;60662;48.810;8.872;2023-04-24T12:51:33;96022.97;;;10.53;66.29
3697;BME280;60662;48.810;8.872;2023-04-24T12:52:34;96007.81;;;10.44;65.75
3697;BME280;60662;48.810;8.872;2023-04-24T12:53:36;96010.56;;;10.41;66.05
3697;BME280;60662;48.810;8.872;2023-04-24T12:54:37;96018.25;;;10.60;66.07
3697;BME280;60662;48.810;8.872;2023-04-24T12:55:39;96010.06;;;10.82;64.88
3697;BME280;60662;48.810;8.872;2023-04-24T12:56:41;96013.06;;;11.22;64.17
3697;BME280;60662;48.810;8.872;2023-04-24T12:57:42;96000.72;;;11.24;63.60
3697;BME280;60662;48.810;8.872;2023-04-24T12:58:44;95994.56;;;11.56;63.19
3697;BME280;60662;48.810;8.872;2023-04-24T12:59:45;96007.53;;;12.17;62.37
3697;BME280;60662;48.810;8.872;2023-04-24T13:00:47;95997.28;;;11.83;61.38
3697;BME280;60662;48.810;8.872;2023-04-24T13:01:50;96005.13;;;11.83;61.35
3697;BME280;60662;48.810;8.872;2023-04-24T13:02:51;96006.34;;;11.77;61.54
3697;BME280;60662;48.810;8.872;2023-04-24T13:03:53;96005.53;;;11.91;61.03
3697;BME280;60662;48.810;8.872;2023-04-24T13:04:55;96004.75;;;11.60;62.33
3697;BME280;60662;48.810;8.872;2023-04-24T13:05:56;96013.03;;;12.12;61.84
3697;BME280;60662;48.810;8.872;2023-04-24T13:06:58;96018.22;;;11.83;61.98